sensor_id;sensor_type;location;lat;lon;timestamp;P1;durP1;ratioP1;P2;durP2;ratioP2
8349;SDS011;60699;48.946;8.412;2023-04-24T00:02:01;0.98;;;0.98;;
8349;SDS011;60699;48.946;8.412;2023-04-24T00:04:29;1.40;;;1.30;;
8349;SDS011;60699;48.946;8.412;2023-04-24T00:06:56;1.45;;;1.35;;
8349;SDS011;60699;48.946;8.412;2023-04-24T00:09:25;2.47;;;1.60;;
8349;SDS011;60699;48.946;8.412;2023-04-24T00:11:52;2.78;;;1.42;;
8349;SDS011;60699;48.946;8.412;2023-04-24T00:14:19;1.50;;;1.40;;
8349;SDS011;60699;48.946;8.412;2023-04-24T00:16:46;1.40;;;1.30;;
8349;SDS011;60699;48.946;8.412;2023-04-24T00:19:15;1.30;;;1.20;;
8349;SDS011;60699;48.946;8.412;2023-04-24T00:21:42;3.38;;;1.27;;
8349;SDS011;60699;48.946;8.412;2023-04-24T00:24:09;1.35;;;1.25;;
8349;SDS011;60699;48.946;8.412;2023-04-24T00:26:36;1.20;;;1.20;;
8349;SDS011;60699;48.946;8.412;2023-04-24T00:29:03;2.78;;;1.33;;
8349;SDS011;60699;48.946;8.412;2023-04-24T00:31:30;1.30;;;1.20;;
8349;SDS011;60699;48.946;8.412;2023-04-24T00:33:59;1.10;;;1.10;;
8349;SDS011;60699;48.946;8.412;2023-04-24T00:36:28;1.30;;;1.20;;
8349;SDS011;60699;48.946;8.412;2023-04-24T00:38:55;1.23;;;1.13;;
8349;SDS011;60699;48.946;8.412;2023-04-24T00:41:22;1.38;;;1.15;;
8349;SDS011;60699;48.946;8.412;2023-04-24T00:43:51;1.60;;;1.38;;
8349;SDS011;60699;48.946;8.412;2023-04-24T00:46:18;3.00;;;1.50;;
8349;SDS011;60699;48.946;8.412;2023-04-24T00:48:46;1.20;;;1.20;;
8349;SDS011;60699;48.946;8.412;2023-04-24T00:51:13;1.10;;;1.10;;
8349;SDS011;60699;48.946;8.412;2023-04-24T00:53:42;2.35;;;1.40;;
8349;SDS011;60699;48.946;8.412;2023-04-24T00:56:09;1.60;;;1.20;;
8349;SDS011;60699;48.946;8.412;2023-04-24T00:58:36;1.30;;;1.20;;
8349;SDS011;60699;48.946;8.412;2023-04-24T01:01:03;2.75;;;1.20;;
8349;SDS011;60699;48.946;8.412;2023-04-24T01:03:32;1.17;;;1.10;;
8349;SDS011;60699;48.946;8.412;2023-04-24T01:06:01;1.38;;;1.30;;
8349;SDS011;60699;48.946;8.412;2023-04-24T01:08:29;5.95;;;1.40;;
8349;SDS011;60699;48.946;8.412;2023-04-24T01:10:57;1.38;;;1.27;;
8349;SDS011;60699;48.946;8.412;2023-04-24T01:13:25;1.50;;;1.40;;
8349;SDS011;60699;48.946;8.412;2023-04-24T01:15:52;1.48;;;1.20;;
8349;SDS011;60699;48.946;8.412;2023-04-24T01:18:19;2.60;;;1.40;;
8349;SDS011;60699;48.946;8.412;2023-04-24T01:20:46;1.83;;;1.73;;
8349;SDS011;60699;48.946;8.412;2023-04-24T01:23:17;1.60;;;1.50;;
8349;SDS011;60699;48.946;8.412;2023-04-24T01:25:44;1.05;;;1.02;;
8349;SDS011;60699;48.946;8.412;2023-04-24T01:28:12;1.35;;;1.20;;
8349;SDS011;60699;48.946;8.412;2023-04-24T01:30:40;1.60;;;1.50;;
8349;SDS011;60699;48.946;8.412;2023-04-24T01:33:07;1.40;;;1.30;;
8349;SDS011;60699;48.946;8.412;2023-04-24T01:35:34;1.50;;;1.23;;
8349;SDS011;60699;48.946;8.412;2023-04-24T01:38:02;2.42;;;1.13;;
8349;SDS011;60699;48.946;8.412;2023-04-24T01:40:30;1.42;;;1.30;;
8349;SDS011;60699;48.946;8.412;2023-04-24T01:42:57;1.67;;;1.48;;
8349;SDS011;60699;48.946;8.412;2023-04-24T01:45:25;1.10;;;1.10;;
8349;SDS011;60699;48.946;8.412;2023-04-24T01:47:52;1.42;;;1.33;;
8349;SDS011;60699;48.946;8.412;2023-04-24T01:50:19;1.25;;;1.25;;
8349;SDS011;60699;48.946;8.412;2023-04-24T01:52:46;1.65;;;1.08;;
8349;SDS011;60699;48.946;8.412;2023-04-24T01:55:13;1.35;;;1.25;;
8349;SDS011;60699;48.946;8.412;2023-04-24T01:57:41;2.00;;;1.90;;
8349;SDS011;60699;48.946;8.412;2023-04-24T02:00:08;1.60;;;1.30;;
8349;SDS011;60699;48.946;8.412;2023-04-24T02:02:36;1.88;;;1.33;;
8349;SDS011;60699;48.946;8.412;2023-04-24T02:05:05;2.53;;;1.38;;
8349;SDS011;60699;48.946;8.412;2023-04-24T02:07:32;2.67;;;1.45;;
8349;SDS011;60699;48.946;8.412;2023-04-24T02:09:59;1.55;;;1.42;;
8349;SDS011;60699;48.946;8.412;2023-04-24T02:12:26;1.83;;;1.40;;
8349;SDS011;60699;48.946;8.412;2023-04-24T02:14:55;1.15;;;1.08;;
8349;SDS011;60699;48.946;8.412;2023-04-24T02:17:22;1.73;;;1.45;;
8349;SDS011;60699;48.946;8.412;2023-04-24T02:19:49;1.38;;;1.38;;
8349;SDS011;60699;48.946;8.412;2023-04-24T02:22:16;1.75;;;1.17;;
8349;SDS011;60699;48.946;8.412;2023-04-24T02:24:43;2.03;;;1.50;;
8349;SDS011;60699;48.946;8.412;2023-04-24T02:27:10;0.93;;;0.93;;
8349;SDS011;60699;48.946;8.412;2023-04-24T02:29:37;2.13;;;1.30;;
8349;SDS011;60699;48.946;8.412;2023-04-24T02:32:05;1.30;;;1.20;;
8349;SDS011;60699;48.946;8.412;2023-04-24T02:34:36;1.15;;;1.05;;
8349;SDS011;60699;48.946;8.412;2023-04-24T02:37:03;1.40;;;1.40;;
8349;SDS011;60699;48.946;8.412;2023-04-24T02:39:30;1.30;;;1.20;;
8349;SDS011;60699;48.946;8.412;2023-04-24T02:41:57;1.70;;;1.60;;
8349;SDS011;60699;48.946;8.412;2023-04-24T02:44:24;1.35;;;1.25;;
8349;SDS011;60699;48.946;8.412;2023-04-24T02:46:51;1.42;;;1.30;;
8349;SDS011;60699;48.946;8.412;2023-04-24T02:49:20;1.20;;;1.20;;
8349;SDS011;60699;48.946;8.412;2023-04-24T02:51:47;1.20;;;1.10;;
8349;SDS011;60699;48.946;8.412;2023-04-24T02:54:14;1.20;;;1.20;;
8349;SDS011;60699;48.946;8.412;2023-04-24T02:56:41;1.25;;;1.17;;
8349;SDS011;60699;48.946;8.412;2023-04-24T02:59:08;1.83;;;1.73;;
8349;SDS011;60699;48.946;8.412;2023-04-24T03:01:35;1.20;;;1.10;;
8349;SDS011;60699;48.946;8.412;2023-04-24T03:04:02;1.30;;;1.20;;
8349;SDS011;60699;48.946;8.412;2023-04-24T03:06:30;2.67;;;1.58;;
8349;SDS011;60699;48.946;8.412;2023-04-24T03:09:00;2.42;;;1.75;;
8349;SDS011;60699;48.946;8.412;2023-04-24T03:11:28;2.63;;;1.55;;
8349;SDS011;60699;48.946;8.412;2023-04-24T03:13:55;1.50;;;1.40;;
8349;SDS011;60699;48.946;8.412;2023-04-24T03:16:22;1.27;;;1.20;;
8349;SDS011;60699;48.946;8.412;2023-04-24T03:18:49;1.80;;;0.98;;
8349;SDS011;60699;48.946;8.412;2023-04-24T03:21:17;1.23;;;1.13;;
8349;SDS011;60699;48.946;8.412;2023-04-24T03:23:45;1.83;;;1.73;;
8349;SDS011;60699;48.946;8.412;2023-04-24T03:26:12;1.30;;;1.20;;
8349;SDS011;60699;48.946;8.412;2023-04-24T03:28:39;4.32;;;1.90;;
8349;SDS011;60699;48.946;8.412;2023-04-24T03:31:06;1.20;;;1.20;;
8349;SDS011;60699;48.946;8.412;2023-04-24T03:33:33;1.98;;;1.40;;
8349;SDS011;60699;48.946;8.412;2023-04-24T03:36:01;1.20;;;1.20;;
8349;SDS011;60699;48.946;8.412;2023-04-24T03:38:28;1.45;;;1.35;;
8349;SDS011;60699;48.946;8.412;2023-04-24T03:40:56;2.35;;;1.95;;
8349;SDS011;60699;48.946;8.412;2023-04-24T03:43:23;1.20;;;1.20;;
8349;SDS011;60699;48.946;8.412;2023-04-24T03:45:52;1.73;;;1.30;;
8349;SDS011;60699;48.946;8.412;2023-04-24T03:48:19;2.35;;;1.48;;
8349;SDS011;60699;48.946;8.412;2023-04-24T03:50:46;3.67;;;1.80;;
8349;SDS011;60699;48.946;8.412;2023-04-24T03:53:13;1.63;;;1.40;;
8349;SDS011;60699;48.946;8.412;2023-04-24T03:55:40;1.50;;;1.40;;
8349;SDS011;60699;48.946;8.412;2023-04-24T03:58:08;1.55;;;1.40;;
8349;SDS011;60699;48.946;8.412;2023-04-24T04:00:36;1.65;;;1.55;;
8349;SDS011;60699;48.946;8.412;2023-04-24T04:03:05;1.80;;;1.70;;
8349;SDS011;60699;48.946;8.412;2023-04-24T04:05:32;1.60;;;1.50;;
8349;SDS011;60699;48.946;8.412;2023-04-24T04:07:59;1.50;;;1.40;;
8349;SDS011;60699;48.946;8.412;2023-04-24T04:10:26;1.67;;;1.58;;
8349;SDS011;60699;48.946;8.412;2023-04-24T04:12:53;4.65;;;1.60;;
8349;SDS011;60699;48.946;8.412;2023-04-24T04:15:21;1.70;;;1.60;;
8349;SDS011;60699;48.946;8.412;2023-04-24T04:17:48;1.67;;;1.58;;
8349;SDS011;60699;48.946;8.412;2023-04-24T04:20:15;1.50;;;1.40;;
8349;SDS011;60699;48.946;8.412;2023-04-24T04:22:42;2.00;;;1.90;;
8349;SDS011;60699;48.946;8.412;2023-04-24T04:25:10;1.60;;;1.50;;
8349;SDS011;60699;48.946;8.412;2023-04-24T04:27:38;1.95;;;1.75;;
8349;SDS011;60699;48.946;8.412;2023-04-24T04:30:07;1.73;;;1.63;;
8349;SDS011;60699;48.946;8.412;2023-04-24T04:32:36;1.85;;;1.75;;
8349;SDS011;60699;48.946;8.412;2023-04-24T04:35:03;2.05;;;1.95;;
8349;SDS011;60699;48.946;8.412;2023-04-24T04:37:30;3.90;;;1.90;;
8349;SDS011;60699;48.946;8.412;2023-04-24T04:39:58;2.25;;;2.15;;
8349;SDS011;60699;48.946;8.412;2023-04-24T04:42:25;2.28;;;2.10;;
8349;SDS011;60699;48.946;8.412;2023-04-24T04:44:53;2.50;;;2.28;;
8349;SDS011;60699;48.946;8.412;2023-04-24T04:47:21;1.63;;;1.52;;
8349;SDS011;60699;48.946;8.412;2023-04-24T04:49:50;2.70;;;2.05;;
8349;SDS011;60699;48.946;8.412;2023-04-24T04:52:17;2.08;;;1.98;;
8349;SDS011;60699;48.946;8.412;2023-04-24T04:54:44;2.08;;;1.98;;
8349;SDS011;60699;48.946;8.412;2023-04-24T04:57:12;1.98;;;1.88;;
8349;SDS011;60699;48.946;8.412;2023-04-24T04:59:39;2.65;;;2.45;;
8349;SDS011;60699;48.946;8.412;2023-04-24T05:02:07;2.47;;;2.33;;
8349;SDS011;60699;48.946;8.412;2023-04-24T05:04:34;2.17;;;1.98;;
8349;SDS011;60699;48.946;8.412;2023-04-24T05:07:02;2.90;;;2.10;;
8349;SDS011;60699;48.946;8.412;2023-04-24T05:09:29;2.08;;;1.98;;
8349;SDS011;60699;48.946;8.412;2023-04-24T05:11:56;2.65;;;2.45;;
8349;SDS011;60699;48.946;8.412;2023-04-24T05:14:23;1.90;;;1.80;;
8349;SDS011;60699;48.946;8.412;2023-04-24T05:16:50;2.53;;;2.33;;
8349;SDS011;60699;48.946;8.412;2023-04-24T05:19:17;2.05;;;1.83;;
8349;SDS011;60699;48.946;8.412;2023-04-24T05:21:44;2.45;;;1.90;;
8349;SDS011;60699;48.946;8.412;2023-04-24T05:24:12;2.90;;;2.65;;
8349;SDS011;60699;48.946;8.412;2023-04-24T05:26:39;2.90;;;2.40;;
8349;SDS011;60699;48.946;8.412;2023-04-24T05:29:06;3.10;;;2.60;;
8349;SDS011;60699;48.946;8.412;2023-04-24T05:31:33;3.28;;;2.55;;
8349;SDS011;60699;48.946;8.412;2023-04-24T05:34:00;5.75;;;2.50;;
8349;SDS011;60699;48.946;8.412;2023-04-24T05:36:27;2.80;;;2.55;;
8349;SDS011;60699;48.946;8.412;2023-04-24T05:38:55;2.83;;;2.55;;
8349;SDS011;60699;48.946;8.412;2023-04-24T05:41:24;2.45;;;2.30;;
8349;SDS011;60699;48.946;8.412;2023-04-24T05:43:51;2.95;;;2.75;;
8349;SDS011;60699;48.946;8.412;2023-04-24T05:46:18;2.30;;;2.10;;
8349;SDS011;60699;48.946;8.412;2023-04-24T05:48:45;3.67;;;2.15;;
8349;SDS011;60699;48.946;8.412;2023-04-24T05:51:12;2.55;;;2.25;;
8349;SDS011;60699;48.946;8.412;2023-04-24T05:53:39;2.78;;;2.10;;
8349;SDS011;60699;48.946;8.412;2023-04-24T05:56:06;2.80;;;2.50;;
8349;SDS011;60699;48.946;8.412;2023-04-24T05:58:34;2.85;;;2.60;;
8349;SDS011;60699;48.946;8.412;2023-04-24T06:01:02;2.28;;;2.17;;
8349;SDS011;60699;48.946;8.412;2023-04-24T06:03:29;2.95;;;2.75;;
8349;SDS011;60699;48.946;8.412;2023-04-24T06:05:56;2.80;;;2.53;;
8349;SDS011;60699;48.946;8.412;2023-04-24T06:08:23;2.50;;;2.30;;
8349;SDS011;60699;48.946;8.412;2023-04-24T06:10:50;2.40;;;2.20;;
8349;SDS011;60699;48.946;8.412;2023-04-24T06:13:17;2.33;;;2.15;;
8349;SDS011;60699;48.946;8.412;2023-04-24T06:15:46;2.08;;;1.98;;
8349;SDS011;60699;48.946;8.412;2023-04-24T06:18:13;5.68;;;2.15;;
8349;SDS011;60699;48.946;8.412;2023-04-24T06:20:40;2.88;;;2.67;;
8349;SDS011;60699;48.946;8.412;2023-04-24T06:23:07;3.78;;;2.60;;
8349;SDS011;60699;48.946;8.412;2023-04-24T06:25:34;2.83;;;2.63;;
8349;SDS011;60699;48.946;8.412;2023-04-24T06:28:02;2.35;;;2.25;;
8349;SDS011;60699;48.946;8.412;2023-04-24T06:30:29;2.50;;;2.30;;
8349;SDS011;60699;48.946;8.412;2023-04-24T06:32:58;2.65;;;2.42;;
8349;SDS011;60699;48.946;8.412;2023-04-24T06:35:25;3.08;;;2.60;;
8349;SDS011;60699;48.946;8.412;2023-04-24T06:37:52;2.45;;;2.25;;
8349;SDS011;60699;48.946;8.412;2023-04-24T06:40:21;3.28;;;2.40;;
8349;SDS011;60699;48.946;8.412;2023-04-24T06:42:48;2.47;;;2.28;;
8349;SDS011;60699;48.946;8.412;2023-04-24T06:45:15;2.20;;;2.10;;
8349;SDS011;60699;48.946;8.412;2023-04-24T06:47:42;3.38;;;2.63;;
8349;SDS011;60699;48.946;8.412;2023-04-24T06:50:10;2.75;;;2.40;;
8349;SDS011;60699;48.946;8.412;2023-04-24T06:52:37;2.53;;;2.35;;
8349;SDS011;60699;48.946;8.412;2023-04-24T06:55:05;3.65;;;2.20;;
8349;SDS011;60699;48.946;8.412;2023-04-24T06:57:32;2.35;;;2.20;;
8349;SDS011;60699;48.946;8.412;2023-04-24T06:59:59;2.10;;;2.00;;
8349;SDS011;60699;48.946;8.412;2023-04-24T07:02:26;4.10;;;2.35;;
8349;SDS011;60699;48.946;8.412;2023-04-24T07:04:53;2.50;;;2.30;;
8349;SDS011;60699;48.946;8.412;2023-04-24T07:07:22;2.30;;;2.20;;
8349;SDS011;60699;48.946;8.412;2023-04-24T07:09:49;3.55;;;2.55;;
8349;SDS011;60699;48.946;8.412;2023-04-24T07:12:16;2.90;;;2.70;;
8349;SDS011;60699;48.946;8.412;2023-04-24T07:14:45;2.85;;;2.60;;
8349;SDS011;60699;48.946;8.412;2023-04-24T07:17:12;4.53;;;2.40;;
8349;SDS011;60699;48.946;8.412;2023-04-24T07:19:39;3.40;;;2.80;;
8349;SDS011;60699;48.946;8.412;2023-04-24T07:22:06;3.05;;;2.45;;
8349;SDS011;60699;48.946;8.412;2023-04-24T07:24:35;2.10;;;2.00;;
8349;SDS011;60699;48.946;8.412;2023-04-24T07:27:02;2.40;;;2.30;;
8349;SDS011;60699;48.946;8.412;2023-04-24T07:29:29;2.78;;;2.08;;
8349;SDS011;60699;48.946;8.412;2023-04-24T07:31:56;4.63;;;2.40;;
8349;SDS011;60699;48.946;8.412;2023-04-24T07:34:23;2.63;;;2.13;;
8349;SDS011;60699;48.946;8.412;2023-04-24T07:36:50;2.30;;;2.10;;
8349;SDS011;60699;48.946;8.412;2023-04-24T07:39:18;2.08;;;1.95;;
8349;SDS011;60699;48.946;8.412;2023-04-24T07:41:46;2.13;;;2.03;;
8349;SDS011;60699;48.946;8.412;2023-04-24T07:44:13;2.42;;;1.75;;
8349;SDS011;60699;48.946;8.412;2023-04-24T07:46:40;1.83;;;1.70;;
8349;SDS011;60699;48.946;8.412;2023-04-24T07:49:07;2.15;;;1.77;;
8349;SDS011;60699;48.946;8.412;2023-04-24T07:51:34;1.63;;;1.52;;
8349;SDS011;60699;48.946;8.412;2023-04-24T07:54:03;2.45;;;2.15;;
8349;SDS011;60699;48.946;8.412;2023-04-24T07:56:31;1.90;;;1.80;;
8349;SDS011;60699;48.946;8.412;2023-04-24T07:59:00;1.73;;;1.63;;
8349;SDS011;60699;48.946;8.412;2023-04-24T08:01:27;1.80;;;1.70;;
8349;SDS011;60699;48.946;8.412;2023-04-24T08:03:54;2.40;;;1.70;;
8349;SDS011;60699;48.946;8.412;2023-04-24T08:06:21;2.22;;;2.03;;
8349;SDS011;60699;48.946;8.412;2023-04-24T08:08:49;1.75;;;1.65;;
8349;SDS011;60699;48.946;8.412;2023-04-24T08:11:16;1.73;;;1.63;;
8349;SDS011;60699;48.946;8.412;2023-04-24T08:13:43;2.22;;;1.73;;
8349;SDS011;60699;48.946;8.412;2023-04-24T08:16:11;1.95;;;1.85;;
8349;SDS011;60699;48.946;8.412;2023-04-24T08:18:39;2.10;;;1.60;;
8349;SDS011;60699;48.946;8.412;2023-04-24T08:21:06;5.57;;;2.20;;
8349;SDS011;60699;48.946;8.412;2023-04-24T08:23:34;2.28;;;2.15;;
8349;SDS011;60699;48.946;8.412;2023-04-24T08:26:01;2.17;;;2.08;;
8349;SDS011;60699;48.946;8.412;2023-04-24T08:28:28;3.88;;;2.33;;
8349;SDS011;60699;48.946;8.412;2023-04-24T08:30:55;2.70;;;1.90;;
8349;SDS011;60699;48.946;8.412;2023-04-24T08:33:24;2.40;;;2.20;;
8349;SDS011;60699;48.946;8.412;2023-04-24T08:35:51;2.25;;;2.05;;
8349;SDS011;60699;48.946;8.412;2023-04-24T08:38:19;3.47;;;2.22;;
8349;SDS011;60699;48.946;8.412;2023-04-24T08:40:47;2.25;;;1.92;;
8349;SDS011;60699;48.946;8.412;2023-04-24T08:43:14;5.25;;;2.10;;
8349;SDS011;60699;48.946;8.412;2023-04-24T08:45:42;8.10;;;2.15;;
8349;SDS011;60699;48.946;8.412;2023-04-24T08:48:09;3.92;;;1.70;;
8349;SDS011;60699;48.946;8.412;2023-04-24T08:50:37;3.13;;;2.20;;
8349;SDS011;60699;48.946;8.412;2023-04-24T08:53:06;2.00;;;1.80;;
8349;SDS011;60699;48.946;8.412;2023-04-24T08:55:34;6.43;;;2.90;;
8349;SDS011;60699;48.946;8.412;2023-04-24T08:58:01;2.67;;;2.33;;
8349;SDS011;60699;48.946;8.412;2023-04-24T09:00:28;1.95;;;1.85;;
8349;SDS011;60699;48.946;8.412;2023-04-24T09:02:56;2.00;;;1.90;;
8349;SDS011;60699;48.946;8.412;2023-04-24T09:05:24;2.25;;;2.05;;
8349;SDS011;60699;48.946;8.412;2023-04-24T09:07:54;2.20;;;2.03;;
8349;SDS011;60699;48.946;8.412;2023-04-24T09:10:22;4.43;;;2.00;;
8349;SDS011;60699;48.946;8.412;2023-04-24T09:12:50;2.47;;;2.00;;
8349;SDS011;60699;48.946;8.412;2023-04-24T09:15:17;2.47;;;2.22;;
8349;SDS011;60699;48.946;8.412;2023-04-24T09:17:45;2.05;;;1.92;;
8349;SDS011;60699;48.946;8.412;2023-04-24T09:20:12;2.53;;;2.33;;
8349;SDS011;60699;48.946;8.412;2023-04-24T09:22:39;2.08;;;1.98;;
8349;SDS011;60699;48.946;8.412;2023-04-24T09:25:08;2.60;;;2.40;;
8349;SDS011;60699;48.946;8.412;2023-04-24T09:27:38;2.40;;;2.20;;
8349;SDS011;60699;48.946;8.412;2023-04-24T09:30:08;2.05;;;1.80;;
8349;SDS011;60699;48.946;8.412;2023-04-24T09:32:35;2.20;;;2.00;;
8349;SDS011;60699;48.946;8.412;2023-04-24T09:35:06;2.53;;;2.40;;
8349;SDS011;60699;48.946;8.412;2023-04-24T09:37:35;2.53;;;2.25;;
8349;SDS011;60699;48.946;8.412;2023-04-24T09:40:10;2.38;;;2.20;;
8349;SDS011;60699;48.946;8.412;2023-04-24T09:42:37;2.60;;;2.40;;
8349;SDS011;60699;48.946;8.412;2023-04-24T09:45:08;4.13;;;2.33;;
8349;SDS011;60699;48.946;8.412;2023-04-24T09:47:36;2.78;;;2.47;;
8349;SDS011;60699;48.946;8.412;2023-04-24T09:50:12;2.90;;;2.67;;
8349;SDS011;60699;48.946;8.412;2023-04-24T09:52:40;2.50;;;2.30;;
8349;SDS011;60699;48.946;8.412;2023-04-24T09:55:18;2.35;;;2.15;;
8349;SDS011;60699;48.946;8.412;2023-04-24T09:57:49;2.45;;;2.25;;
8349;SDS011;60699;48.946;8.412;2023-04-24T10:00:22;2.45;;;2.25;;
8349;SDS011;60699;48.946;8.412;2023-04-24T10:02:50;2.33;;;2.22;;
8349;SDS011;60699;48.946;8.412;2023-04-24T10:05:18;2.47;;;2.28;;
8349;SDS011;60699;48.946;8.412;2023-04-24T10:07:45;2.22;;;2.08;;
8349;SDS011;60699;48.946;8.412;2023-04-24T10:10:12;2.40;;;2.30;;
8349;SDS011;60699;48.946;8.412;2023-04-24T10:12:41;2.50;;;2.30;;
8349;SDS011;60699;48.946;8.412;2023-04-24T10:15:09;2.50;;;2.30;;
8349;SDS011;60699;48.946;8.412;2023-04-24T10:17:39;3.90;;;2.10;;
8349;SDS011;60699;48.946;8.412;2023-04-24T10:20:06;2.95;;;2.55;;
8349;SDS011;60699;48.946;8.412;2023-04-24T10:22:33;4.78;;;3.03;;
8349;SDS011;60699;48.946;8.412;2023-04-24T10:25:00;2.45;;;2.25;;
8349;SDS011;60699;48.946;8.412;2023-04-24T10:27:29;3.28;;;2.30;;
8349;SDS011;60699;48.946;8.412;2023-04-24T10:29:58;3.00;;;2.80;;
8349;SDS011;60699;48.946;8.412;2023-04-24T10:32:26;3.17;;;2.90;;
8349;SDS011;60699;48.946;8.412;2023-04-24T10:34:54;3.20;;;2.90;;
8349;SDS011;60699;48.946;8.412;2023-04-24T10:37:21;3.10;;;2.90;;
8349;SDS011;60699;48.946;8.412;2023-04-24T10:39:48;3.05;;;2.75;;
8349;SDS011;60699;48.946;8.412;2023-04-24T10:42:16;3.47;;;3.28;;
8349;SDS011;60699;48.946;8.412;2023-04-24T10:44:43;2.80;;;2.60;;
8349;SDS011;60699;48.946;8.412;2023-04-24T10:47:13;3.70;;;2.60;;
8349;SDS011;60699;48.946;8.412;2023-04-24T10:49:40;2.30;;;2.10;;
8349;SDS011;60699;48.946;8.412;2023-04-24T10:52:08;2.70;;;2.53;;
8349;SDS011;60699;48.946;8.412;2023-04-24T10:54:36;2.25;;;2.15;;
8349;SDS011;60699;48.946;8.412;2023-04-24T10:59:51;3.72;;;2.65;;
8349;SDS011;60699;48.946;8.412;2023-04-24T11:02:23;2.53;;;2.38;;
8349;SDS011;60699;48.946;8.412;2023-04-24T11:05:02;2.85;;;2.40;;
8349;SDS011;60699;48.946;8.412;2023-04-24T11:07:29;2.67;;;2.42;;
8349;SDS011;60699;48.946;8.412;2023-04-24T11:09:57;2.72;;;2.50;;
8349;SDS011;60699;48.946;8.412;2023-04-24T11:12:25;2.17;;;2.08;;
8349;SDS011;60699;48.946;8.412;2023-04-24T11:14:59;2.70;;;2.50;;
8349;SDS011;60699;48.946;8.412;2023-04-24T11:17:28;2.42;;;2.08;;
8349;SDS011;60699;48.946;8.412;2023-04-24T11:20:00;2.78;;;2.50;;
8349;SDS011;60699;48.946;8.412;2023-04-24T11:22:28;4.88;;;2.80;;
8349;SDS011;60699;48.946;8.412;2023-04-24T11:24:58;3.95;;;2.40;;
8349;SDS011;60699;48.946;8.412;2023-04-24T11:27:28;3.42;;;3.13;;
8349;SDS011;60699;48.946;8.412;2023-04-24T11:29:58;3.10;;;2.88;;
8349;SDS011;60699;48.946;8.412;2023-04-24T11:32:26;3.50;;;2.72;;
8349;SDS011;60699;48.946;8.412;2023-04-24T11:34:55;2.85;;;2.65;;
8349;SDS011;60699;48.946;8.412;2023-04-24T11:37:22;3.20;;;2.90;;
8349;SDS011;60699;48.946;8.412;2023-04-24T11:39:50;3.10;;;2.80;;
8349;SDS011;60699;48.946;8.412;2023-04-24T11:42:17;2.92;;;2.72;;
8349;SDS011;60699;48.946;8.412;2023-04-24T11:44:45;2.28;;;2.08;;
8349;SDS011;60699;48.946;8.412;2023-04-24T11:47:13;2.78;;;2.55;;
8349;SDS011;60699;48.946;8.412;2023-04-24T11:49:40;2.90;;;2.70;;
8349;SDS011;60699;48.946;8.412;2023-04-24T11:52:08;2.50;;;2.38;;
8349;SDS011;60699;48.946;8.412;2023-04-24T11:54:36;4.72;;;4.32;;
8349;SDS011;60699;48.946;8.412;2023-04-24T11:57:03;3.65;;;3.35;;
8349;SDS011;60699;48.946;8.412;2023-04-24T11:59:35;3.00;;;2.80;;
8349;SDS011;60699;48.946;8.412;2023-04-24T12:02:02;3.40;;;3.10;;
8349;SDS011;60699;48.946;8.412;2023-04-24T12:04:38;3.15;;;2.95;;
8349;SDS011;60699;48.946;8.412;2023-04-24T12:07:05;4.18;;;3.88;;
8349;SDS011;60699;48.946;8.412;2023-04-24T12:09:41;3.72;;;3.42;;
8349;SDS011;60699;48.946;8.412;2023-04-24T12:12:08;3.47;;;3.17;;
8349;SDS011;60699;48.946;8.412;2023-04-24T12:14:41;3.25;;;3.05;;
8349;SDS011;60699;48.946;8.412;2023-04-24T12:17:08;3.95;;;3.60;;
8349;SDS011;60699;48.946;8.412;2023-04-24T12:19:36;7.32;;;4.05;;
8349;SDS011;60699;48.946;8.412;2023-04-24T12:22:03;4.40;;;3.90;;
8349;SDS011;60699;48.946;8.412;2023-04-24T12:24:31;4.22;;;3.92;;
8349;SDS011;60699;48.946;8.412;2023-04-24T12:26:59;3.60;;;3.30;;
8349;SDS011;60699;48.946;8.412;2023-04-24T12:29:27;2.97;;;2.78;;
8349;SDS011;60699;48.946;8.412;2023-04-24T12:31:54;3.92;;;3.55;;
8349;SDS011;60699;48.946;8.412;2023-04-24T12:34:24;4.30;;;3.08;;
8349;SDS011;60699;48.946;8.412;2023-04-24T12:36:52;3.08;;;2.88;;
8349;SDS011;60699;48.946;8.412;2023-04-24T12:39:19;4.40;;;3.25;;
8349;SDS011;60699;48.946;8.412;2023-04-24T12:41:50;4.10;;;3.70;;
8349;SDS011;60699;48.946;8.412;2023-04-24T12:44:18;3.63;;;3.30;;
8349;SDS011;60699;48.946;8.412;2023-04-24T12:46:45;3.20;;;2.90;;
8349;SDS011;60699;48.946;8.412;2023-04-24T12:49:12;4.35;;;2.80;;
8349;SDS011;60699;48.946;8.412;2023-04-24T12:51:39;3.75;;;3.42;;
8349;SDS011;60699;48.946;8.412;2023-04-24T12:54:06;3.50;;;3.28;;
8349;SDS011;60699;48.946;8.412;2023-04-24T12:56:33;3.60;;;3.40;;
8349;SDS011;60699;48.946;8.412;2023-04-24T12:59:04;3.20;;;3.00;;
8349;SDS011;60699;48.946;8.412;2023-04-24T13:01:32;3.42;;;3.10;;
8349;SDS011;60699;48.946;8.412;2023-04-24T13:03:59;3.08;;;2.75;;
8349;SDS011;60699;48.946;8.412;2023-04-24T13:06:26;3.67;;;3.38;;
8349;SDS011;60699;48.946;8.412;2023-04-24T13:08:53;3.65;;;3.35;;
8349;SDS011;60699;48.946;8.412;2023-04-24T13:11:22;4.65;;;3.58;;
8349;SDS011;60699;48.946;8.412;2023-04-24T13:13:49;3.45;;;3.15;;
8349;SDS011;60699;48.946;8.412;2023-04-24T13:16:17;3.55;;;3.15;;
8349;SDS011;60699;48.946;8.412;2023-04-24T13:18:45;3.60;;;3.30;;
8349;SDS011;60699;48.946;8.412;2023-04-24T13:21:12;3.75;;;3.45;;
8349;SDS011;60699;48.946;8.412;2023-04-24T13:23:39;3.60;;;3.30;;
8349;SDS011;60699;48.946;8.412;2023-04-24T13:26:07;6.57;;;3.60;;
8349;SDS011;60699;48.946;8.412;2023-04-24T13:28:36;4.13;;;3.83;;
8349;SDS011;60699;48.946;8.412;2023-04-24T13:31:03;3.28;;;2.95;;
8349;SDS011;60699;48.946;8.412;2023-04-24T13:33:31;3.00;;;2.80;;
8349;SDS011;60699;48.946;8.412;2023-04-24T13:35:59;3.47;;;3.08;;
8349;SDS011;60699;48.946;8.412;2023-04-24T13:38:26;3.40;;;3.10;;
8349;SDS011;60699;48.946;8.412;2023-04-24T13:40:53;3.25;;;2.95;;
8349;SDS011;60699;48.946;8.412;2023-04-24T13:43:20;3.33;;;3.13;;
8349;SDS011;60699;48.946;8.412;2023-04-24T13:45:47;3.15;;;2.95;;
8349;SDS011;60699;48.946;8.412;2023-04-24T13:48:14;5.60;;;3.03;;
8349;SDS011;60699;48.946;8.412;2023-04-24T13:50:43;3.40;;;2.70;;
8349;SDS011;60699;48.946;8.412;2023-04-24T13:53:17;2.95;;;2.75;;
8349;SDS011;60699;48.946;8.412;2023-04-24T13:55:44;2.78;;;2.60;;
8349;SDS011;60699;48.946;8.412;2023-04-24T13:58:11;3.30;;;3.00;;
8349;SDS011;60699;48.946;8.412;2023-04-24T14:00:38;6.57;;;3.17;;
8349;SDS011;60699;48.946;8.412;2023-04-24T14:03:05;2.40;;;2.20;;
8349;SDS011;60699;48.946;8.412;2023-04-24T14:05:32;2.42;;;2.22;;
8349;SDS011;60699;48.946;8.412;2023-04-24T14:07:59;3.00;;;2.80;;
8349;SDS011;60699;48.946;8.412;2023-04-24T14:10:28;3.50;;;3.20;;
8349;SDS011;60699;48.946;8.412;2023-04-24T14:12:55;2.65;;;2.45;;
8349;SDS011;60699;48.946;8.412;2023-04-24T14:15:22;3.00;;;2.53;;
8349;SDS011;60699;48.946;8.412;2023-04-24T14:17:49;2.65;;;2.45;;
8349;SDS011;60699;48.946;8.412;2023-04-24T14:20:16;2.88;;;2.70;;
8349;SDS011;60699;48.946;8.412;2023-04-24T14:22:43;2.97;;;2.58;;
8349;SDS011;60699;48.946;8.412;2023-04-24T14:25:10;3.55;;;2.42;;
8349;SDS011;60699;48.946;8.412;2023-04-24T14:27:39;2.83;;;2.58;;
8349;SDS011;60699;48.946;8.412;2023-04-24T14:30:06;2.65;;;2.45;;
8349;SDS011;60699;48.946;8.412;2023-04-24T14:32:34;1.95;;;1.85;;
8349;SDS011;60699;48.946;8.412;2023-04-24T14:35:01;2.45;;;2.17;;
8349;SDS011;60699;48.946;8.412;2023-04-24T14:37:28;2.35;;;2.20;;
8349;SDS011;60699;48.946;8.412;2023-04-24T14:39:55;2.35;;;2.15;;
8349;SDS011;60699;48.946;8.412;2023-04-24T14:42:22;2.40;;;2.20;;
8349;SDS011;60699;48.946;8.412;2023-04-24T14:44:50;2.33;;;2.15;;
8349;SDS011;60699;48.946;8.412;2023-04-24T14:47:17;2.47;;;2.17;;
8349;SDS011;60699;48.946;8.412;2023-04-24T14:49:46;2.70;;;2.50;;
8349;SDS011;60699;48.946;8.412;2023-04-24T14:52:13;2.17;;;1.75;;
8349;SDS011;60699;48.946;8.412;2023-04-24T14:54:41;2.75;;;2.58;;
8349;SDS011;60699;48.946;8.412;2023-04-24T14:57:08;3.20;;;2.90;;
8349;SDS011;60699;48.946;8.412;2023-04-24T14:59:35;2.95;;;2.75;;
8349;SDS011;60699;48.946;8.412;2023-04-24T15:02:03;2.67;;;2.47;;
8349;SDS011;60699;48.946;8.412;2023-04-24T15:04:31;2.55;;;2.45;;
8349;SDS011;60699;48.946;8.412;2023-04-24T15:06:58;2.55;;;2.28;;